Time;durP1;ratioP1;P1;durP2;ratioP2;P2;SDS_P1;SDS_P2;PMS_P1;PMS_P2;Temp;Humidity;BMP_temperature;BMP_pressure;BME280_temperature;BME280_humidity;BME280_pressure;Samples;Min_cycle;Max_cycle;Signal;HPM_P1;HPM_P2
2022/12/03 00:01:50;;;;;;;118.77;8.93;;;;;;;;;;8342460;28;20110;-64
2022/12/03 00:05:50;;;;;;;11.43;6.97;;;;;;;;;;8337171;28;20267;-64
2022/12/03 00:09:51;;;;;;;43.90;6.90;;;;;;;;;;8340300;28;20155;-64
2022/12/03 00:13:51;;;;;;;37.63;7.40;;;;;;;;;;8337530;28;20025;-64
2022/12/03 00:17:51;;;;;;;39.55;7.10;;;;;;;;;;8338676;28;20037;-64
2022/12/03 00:21:51;;;;;;;45.88;7.00;;;;;;;;;;8339817;28;20075;-64
2022/12/03 00:25:51;;;;;;;17.80;6.28;;;;;;;;;;8339734;28;20171;-64
2022/12/03 00:29:52;;;;;;;42.60;6.90;;;;;;;;;;8339981;28;20060;-64
2022/12/03 00:33:52;;;;;;;58.72;7.47;;;;;;;;;;8337294;28;20041;-64
2022/12/03 00:37:53;;;;;;;67.30;7.90;;;;;;;;;;8338763;28;20020;-63
2022/12/03 00:41:53;;;;;;;83.35;8.27;;;;;;;;;;8337904;28;20078;-64
2022/12/03 00:45:53;;;;;;;193.07;11.07;;;;;;;;;;8338220;28;20025;-64
2022/12/03 00:49:54;;;;;;;281.88;12.73;;;;;;;;;;8345870;28;20048;-64
2022/12/03 00:53:54;;;;;;;298.88;12.88;;;;;;;;;;8340415;28;20267;-64
2022/12/03 00:57:54;;;;;;;368.75;14.23;;;;;;;;;;8338495;28;20021;-64
2022/12/03 01:01:54;;;;;;;342.35;13.88;;;;;;;;;;8337449;28;20039;-64
2022/12/03 01:05:55;;;;;;;446.10;15.60;;;;;;;;;;8339256;28;20029;-64
2022/12/03 01:09:55;;;;;;;222.30;10.57;;;;;;;;;;8336707;28;20028;-64
2022/12/03 01:13:55;;;;;;;418.00;16.25;;;;;;;;;;8338018;28;20278;-64
2022/12/03 01:17:55;;;;;;;438.42;16.80;;;;;;;;;;8333803;28;20024;-64
2022/12/03 01:21:56;;;;;;;237.45;11.48;;;;;;;;;;8336241;28;20025;-64
2022/12/03 01:25:56;;;;;;;160.27;10.38;;;;;;;;;;8336483;28;20033;-64
2022/12/03 01:29:56;;;;;;;301.95;13.00;;;;;;;;;;8339009;28;20048;-64
2022/12/03 01:33:56;;;;;;;397.15;16.77;;;;;;;;;;8338015;28;20074;-64
2022/12/03 01:37:56;;;;;;;246.98;12.85;;;;;;;;;;8337337;28;20132;-64
2022/12/03 01:41:57;;;;;;;258.98;12.55;;;;;;;;;;8337288;28;20267;-64
2022/12/03 01:45:57;;;;;;;481.85;20.67;;;;;;;;;;8335699;28;20703;-64
2022/12/03 01:50:00;;;;;;;295.45;14.25;;;;;;;;;;8338728;28;20780;-65
2022/12/03 01:54:00;;;;;;;260.30;14.05;;;;;;;;;;8337962;28;20631;-64
2022/12/03 01:58:01;;;;;;;461.75;17.48;;;;;;;;;;8344034;28;20105;-64
2022/12/03 02:02:11;;;;;;;291.20;14.30;;;;;;;;;;8344984;28;20520;-64
2022/12/03 02:06:21;;;;;;;309.40;14.77;;;;;;;;;;8345064;28;20275;-64
2022/12/03 02:10:26;;;;;;;256.55;13.07;;;;;;;;;;8342969;28;20029;-64
2022/12/03 02:14:27;;;;;;;95.75;9.80;;;;;;;;;;8345141;28;21552;-64
2022/12/03 02:18:27;;;;;;;250.55;14.30;;;;;;;;;;8340957;28;20094;-63
2022/12/03 02:22:31;;;;;;;186.80;13.40;;;;;;;;;;8343182;28;20148;-64
2022/12/03 02:26:31;;;;;;;332.23;16.30;;;;;;;;;;8341486;28;20283;-64
2022/12/03 02:30:31;;;;;;;300.80;15.90;;;;;;;;;;8341381;28;21091;-64
2022/12/03 02:34:40;;;;;;;307.05;16.52;;;;;;;;;;8342599;28;20219;-64
2022/12/03 02:38:40;;;;;;;295.48;17.38;;;;;;;;;;8343483;28;20025;-64
2022/12/03 02:42:41;;;;;;;431.40;20.88;;;;;;;;;;8343643;28;20409;-64
2022/12/03 02:46:41;;;;;;;199.27;13.98;;;;;;;;;;8340588;28;20033;-64
2022/12/03 02:50:47;;;;;;;238.43;15.18;;;;;;;;;;8341362;28;20473;-64
2022/12/03 02:54:48;;;;;;;156.95;14.13;;;;;;;;;;8343186;28;20028;-64
2022/12/03 02:58:50;;;;;;;79.57;12.18;;;;;;;;;;8342719;28;20032;-67
2022/12/03 03:02:51;;;;;;;91.40;13.93;;;;;;;;;;8341067;28;20999;-64
2022/12/03 03:06:51;;;;;;;33.47;11.90;;;;;;;;;;8340984;28;20107;-64
2022/12/03 03:10:52;;;;;;;40.15;12.00;;;;;;;;;;8341508;28;20029;-64
2022/12/03 03:14:53;;;;;;;45.70;12.50;;;;;;;;;;8340853;28;20278;-65
2022/12/03 03:18:53;;;;;;;40.13;12.25;;;;;;;;;;8342074;28;20032;-64
2022/12/03 03:22:53;;;;;;;34.33;11.90;;;;;;;;;;8341201;28;20052;-64
2022/12/03 03:26:54;;;;;;;23.40;11.40;;;;;;;;;;8341054;28;20704;-65
2022/12/03 03:30:54;;;;;;;32.17;11.88;;;;;;;;;;8340097;28;20044;-64
2022/12/03 03:34:55;;;;;;;38.85;13.82;;;;;;;;;;8339062;28;20021;-64
2022/12/03 03:38:55;;;;;;;19.80;11.27;;;;;;;;;;8339190;28;20037;-64
2022/12/03 03:42:56;;;;;;;27.23;11.55;;;;;;;;;;8339504;28;20068;-64
2022/12/03 03:46:56;;;;;;;33.28;13.02;;;;;;;;;;8340244;28;20397;-64
2022/12/03 03:50:56;;;;;;;35.67;12.70;;;;;;;;;;8337650;28;20107;-64
2022/12/03 03:54:57;;;;;;;36.55;12.63;;;;;;;;;;8338272;28;20287;-64
2022/12/03 03:58:57;;;;;;;26.40;11.80;;;;;;;;;;8340846;28;20017;-64
2022/12/03 04:02:57;;;;;;;22.17;11.77;;;;;;;;;;8340690;28;20090;-64
2022/12/03 04:06:57;;;;;;;24.08;12.98;;;;;;;;;;8339519;28;20098;-64
2022/12/03 04:15:17;;;;;;;22.60;13.32;;;;;;;;;;8338714;28;20348;-64
2022/12/03 04:19:17;;;;;;;23.87;12.73;;;;;;;;;;8337882;28;20021;-64
2022/12/03 04:23:17;;;;;;;24.63;12.82;;;;;;;;;;8341524;28;20263;-64
2022/12/03 04:36:05;;;;;;;31.25;13.90;;;;;;;;;;8291760;28;20141;-64
2022/12/03 04:40:59;;;;;;;26.23;13.15;;;;;;;;;;8341436;28;20028;-64
2022/12/03 04:44:32;;;;;;;26.05;13.77;;;;;;;;;;8341525;28;20123;-64
2022/12/03 04:48:32;;;;;;;26.15;13.35;;;;;;;;;;8340395;28;20492;-64
2022/12/03 04:52:33;;;;;;;30.30;13.80;;;;;;;;;;8339779;28;20016;-65
2022/12/03 04:56:33;;;;;;;22.63;12.52;;;;;;;;;;8341057;28;20326;-64
2022/12/03 05:00:33;;;;;;;24.95;14.00;;;;;;;;;;8335444;28;20776;-64
2022/12/03 05:04:33;;;;;;;28.95;14.30;;;;;;;;;;8338062;28;20028;-64
2022/12/03 05:08:34;;;;;;;31.55;14.70;;;;;;;;;;8340751;28;20028;-64
2022/12/03 05:12:34;;;;;;;27.85;13.85;;;;;;;;;;8339337;28;20025;-65
2022/12/03 05:16:35;;;;;;;25.58;13.38;;;;;;;;;;8340426;28;20041;-64
2022/12/03 05:20:41;;;;;;;29.27;13.93;;;;;;;;;;8337974;28;20058;-64
2022/12/03 05:24:41;;;;;;;30.45;14.63;;;;;;;;;;8339350;28;20681;-64
2022/12/03 05:28:42;;;;;;;26.25;13.43;;;;;;;;;;8337501;28;20063;-64
2022/12/03 05:32:42;;;;;;;23.85;13.15;;;;;;;;;;8345176;28;20041;-64
2022/12/03 05:36:42;;;;;;;25.88;13.05;;;;;;;;;;8344626;28;20044;-64
2022/12/03 05:40:42;;;;;;;26.25;14.02;;;;;;;;;;8346541;28;20147;-64
2022/12/03 05:44:43;;;;;;;33.05;13.70;;;;;;;;;;8343100;28;20017;-64
2022/12/03 05:48:43;;;;;;;25.73;13.48;;;;;;;;;;8346212;28;20067;-64
2022/12/03 05:52:43;;;;;;;27.85;13.45;;;;;;;;;;8344955;28;20024;-64
2022/12/03 05:56:44;;;;;;;22.43;12.40;;;;;;;;;;8343431;28;20024;-64
2022/12/03 06:00:44;;;;;;;24.77;11.88;;;;;;;;;;8343125;28;20275;-64
2022/12/03 06:04:44;;;;;;;22.83;11.85;;;;;;;;;;8343106;28;20029;-64
2022/12/03 06:08:44;;;;;;;23.40;12.45;;;;;;;;;;8350872;28;20036;-64
2022/12/03 06:12:45;;;;;;;24.63;12.23;;;;;;;;;;8357454;28;20027;-64
2022/12/03 06:16:46;;;;;;;31.42;13.60;;;;;;;;;;8340410;28;20291;-64
2022/12/03 06:20:46;;;;;;;27.30;13.63;;;;;;;;;;8345235;28;20044;-64
2022/12/03 06:24:46;;;;;;;27.58;11.82;;;;;;;;;;8342407;28;20039;-65
2022/12/03 06:28:48;;;;;;;23.48;12.02;;;;;;;;;;8340643;28;20060;-65
2022/12/03 06:32:48;;;;;;;25.80;12.20;;;;;;;;;;8343871;28;20041;-65
2022/12/03 06:36:51;;;;;;;23.77;11.80;;;;;;;;;;8343532;28;20033;-64
2022/12/03 06:40:51;;;;;;;22.38;12.07;;;;;;;;;;8344230;28;20267;-65
2022/12/03 06:44:51;;;;;;;20.50;10.57;;;;;;;;;;8342450;28;20036;-64
2022/12/03 06:48:52;;;;;;;20.98;11.88;;;;;;;;;;8342950;28;20283;-64
2022/12/03 06:52:52;;;;;;;22.30;11.60;;;;;;;;;;8345512;28;20067;-64
2022/12/03 06:56:52;;;;;;;23.60;11.82;;;;;;;;;;8343371;28;20024;-64
2022/12/03 07:00:52;;;;;;;19.98;11.00;;;;;;;;;;8342514;28;20033;-64
2022/12/03 07:04:53;;;;;;;21.40;12.15;;;;;;;;;;8339027;28;20066;-64
2022/12/03 07:08:54;;;;;;;26.23;10.68;;;;;;;;;;8342048;28;20032;-64
2022/12/03 07:12:54;;;;;;;39.03;11.77;;;;;;;;;;8342091;28;20021;-64
2022/12/03 07:16:54;;;;;;;42.15;12.90;;;;;;;;;;8341300;28;20095;-63
2022/12/03 07:20:54;;;;;;;61.60;12.35;;;;;;;;;;8342656;28;20035;-64
2022/12/03 07:24:54;;;;;;;26.10;9.90;;;;;;;;;;8340870;28;20021;-69
2022/12/03 07:28:55;;;;;;;35.20;10.63;;;;;;;;;;8343278;28;20020;-64
2022/12/03 07:32:55;;;;;;;22.00;10.50;;;;;;;;;;8341127;28;20045;-64
2022/12/03 07:36:55;;;;;;;81.22;12.18;;;;;;;;;;8341407;28;20016;-65
2022/12/03 07:40:56;;;;;;;18.98;10.80;;;;;;;;;;8340059;28;20108;-63
2022/12/03 07:44:56;;;;;;;20.80;10.55;;;;;;;;;;8336724;28;20063;-64
2022/12/03 07:48:56;;;;;;;19.75;11.23;;;;;;;;;;8339160;28;20075;-64
2022/12/03 07:52:57;;;;;;;19.50;10.57;;;;;;;;;;8337291;28;20024;-65
2022/12/03 07:56:57;;;;;;;18.08;10.27;;;;;;;;;;8339627;28;20288;-65
2022/12/03 08:00:57;;;;;;;17.60;10.23;;;;;;;;;;8337999;28;20105;-64
2022/12/03 08:04:57;;;;;;;21.35;11.40;;;;;;;;;;8339807;28;20028;-64
2022/12/03 08:08:58;;;;;;;22.35;10.35;;;;;;;;;;8338427;28;20053;-64
2022/12/03 08:12:58;;;;;;;20.75;11.23;;;;;;;;;;8340452;28;20024;-64
2022/12/03 08:16:58;;;;;;;17.33;10.02;;;;;;;;;;8337384;28;20048;-64
2022/12/03 08:20:58;;;;;;;18.38;10.00;;;;;;;;;;8338314;28;20366;-64
2022/12/03 08:24:59;;;;;;;15.10;9.37;;;;;;;;;;8337917;28;20021;-65
2022/12/03 08:28:59;;;;;;;18.07;10.70;;;;;;;;;;8338948;28;20798;-65
2022/12/03 08:32:59;;;;;;;17.40;9.88;;;;;;;;;;8338596;28;20389;-64
2022/12/03 08:37:00;;;;;;;16.67;10.20;;;;;;;;;;8333888;28;20021;-65
2022/12/03 08:41:01;;;;;;;18.73;11.00;;;;;;;;;;8340418;28;20111;-65
2022/12/03 08:45:26;;;;;;;17.92;10.18;;;;;;;;;;8335912;28;20036;-65
2022/12/03 08:49:26;;;;;;;19.40;11.55;;;;;;;;;;8337408;28;20086;-64
2022/12/03 08:53:31;;;;;;;20.77;11.27;;;;;;;;;;8338537;28;20028;-66
2022/12/03 08:57:33;;;;;;;19.98;11.23;;;;;;;;;;8336161;28;20291;-65
2022/12/03 09:01:43;;;;;;;21.45;12.23;;;;;;;;;;8337445;28;20581;-65
2022/12/03 09:05:44;;;;;;;24.00;12.40;;;;;;;;;;8335644;28;20118;-64
2022/12/03 09:09:44;;;;;;;22.17;11.47;;;;;;;;;;8337303;28;20032;-64
2022/12/03 09:13:44;;;;;;;21.15;11.38;;;;;;;;;;8337522;28;20321;-64
2022/12/03 09:17:44;;;;;;;17.30;10.32;;;;;;;;;;8337775;28;20178;-65
2022/12/03 09:21:45;;;;;;;17.83;10.87;;;;;;;;;;8337953;28;20631;-65
2022/12/03 09:25:45;;;;;;;19.80;11.70;;;;;;;;;;8337386;28;20410;-65
2022/12/03 09:29:45;;;;;;;20.08;12.02;;;;;;;;;;8338391;28;20710;-66
2022/12/03 09:33:45;;;;;;;20.08;10.73;;;;;;;;;;8333993;28;20074;-66
2022/12/03 09:37:45;;;;;;;19.83;9.98;;;;;;;;;;8333142;28;20024;-65
2022/12/03 09:41:46;;;;;;;18.70;11.00;;;;;;;;;;8330901;28;20029;-65
2022/12/03 09:45:46;;;;;;;18.90;11.25;;;;;;;;;;8331087;28;20040;-65
2022/12/03 09:49:47;;;;;;;18.90;11.75;;;;;;;;;;8332860;28;20036;-65
2022/12/03 09:53:47;;;;;;;20.42;10.80;;;;;;;;;;8333036;28;20021;-65
2022/12/03 09:57:47;;;;;;;17.02;10.73;;;;;;;;;;8333904;28;20241;-65
2022/12/03 10:01:47;;;;;;;16.50;10.20;;;;;;;;;;8331988;28;20060;-65
2022/12/03 10:05:48;;;;;;;18.13;11.07;;;;;;;;;;8333169;28;21028;-65
2022/12/03 10:09:48;;;;;;;16.95;9.85;;;;;;;;;;8335405;28;20295;-65
2022/12/03 10:13:49;;;;;;;20.52;11.40;;;;;;;;;;8333397;28;20032;-65
2022/12/03 10:17:50;;;;;;;19.08;11.43;;;;;;;;;;8335095;28;20044;-65
2022/12/03 10:21:50;;;;;;;17.27;10.02;;;;;;;;;;8339674;28;20082;-65
2022/12/03 10:25:58;;;;;;;18.13;11.07;;;;;;;;;;8337494;28;20039;-65
2022/12/03 10:29:59;;;;;;;21.48;11.75;;;;;;;;;;8339217;28;20997;-65
2022/12/03 10:33:59;;;;;;;19.98;11.55;;;;;;;;;;8338567;28;20037;-65
2022/12/03 10:38:01;;;;;;;21.17;12.02;;;;;;;;;;8337979;28;20025;-65
2022/12/03 10:42:15;;;;;;;22.58;12.55;;;;;;;;;;8341477;28;20543;-65
2022/12/03 10:46:19;;;;;;;21.57;11.83;;;;;;;;;;8339972;28;20187;-65
2022/12/03 10:50:19;;;;;;;;;;;;;;;;;;8340901;28;20271;-64
2022/12/03 10:54:21;;;;;;;21.23;11.40;;;;;;;;;;8341671;28;20627;-64
2022/12/03 10:58:22;;;;;;;20.35;11.95;;;;;;;;;;8337283;28;20025;-64
2022/12/03 11:02:23;;;;;;;20.45;11.63;;;;;;;;;;8334887;28;20231;-65
2022/12/03 11:06:23;;;;;;;20.48;12.30;;;;;;;;;;8330759;28;20064;-63
2022/12/03 11:10:24;;;;;;;21.02;12.32;;;;;;;;;;8332066;28;20094;-64
2022/12/03 11:14:43;;;;;;;18.08;11.23;;;;;;;;;;8331587;28;20325;-62
2022/12/03 11:18:43;;;;;;;21.27;12.10;;;;;;;;;;8332026;28;20043;-62
2022/12/03 11:22:47;;;;;;;20.85;12.45;;;;;;;;;;8334672;28;20282;-62
2022/12/03 11:26:50;;;;;;;19.70;11.68;;;;;;;;;;8332101;28;20036;-62
2022/12/03 11:30:50;;;;;;;20.60;12.13;;;;;;;;;;8330974;28;20033;-63
2022/12/03 11:34:50;;;;;;;21.20;12.95;;;;;;;;;;8328830;28;20030;-62
2022/12/03 11:38:52;;;;;;;22.48;13.20;;;;;;;;;;8331268;28;20059;-63
2022/12/03 11:42:53;;;;;;;22.42;12.30;;;;;;;;;;8329021;28;20584;-63
2022/12/03 11:46:56;;;;;;;22.25;12.85;;;;;;;;;;8330581;28;20037;-63
2022/12/03 11:50:56;;;;;;;23.00;13.70;;;;;;;;;;8330838;28;20978;-62
2022/12/03 11:55:17;;;;;;;21.42;13.40;;;;;;;;;;8329642;28;20039;-63
2022/12/03 11:59:17;;;;;;;19.17;12.07;;;;;;;;;;8331712;28;20036;-62
2022/12/03 12:03:23;;;;;;;21.52;12.77;;;;;;;;;;8330730;28;20050;-62
2022/12/03 12:07:36;;;;;;;23.70;13.52;;;;;;;;;;8328661;28;20050;-63
2022/12/03 12:11:39;;;;;;;21.25;13.07;;;;;;;;;;8330921;28;20359;-63
2022/12/03 12:15:43;;;;;;;20.70;12.70;;;;;;;;;;8330333;28;20045;-63
2022/12/03 12:19:44;;;;;;;29.67;12.88;;;;;;;;;;8330207;28;20553;-63
2022/12/03 12:23:44;;;;;;;23.67;14.03;;;;;;;;;;8327410;28;20139;-64
2022/12/03 12:27:46;;;;;;;24.23;13.43;;;;;;;;;;8330252;28;20258;-62
2022/12/03 12:31:47;;;;;;;24.58;13.68;;;;;;;;;;8325695;28;20486;-64
2022/12/03 12:35:48;;;;;;;21.35;12.77;;;;;;;;;;8332367;28;20325;-63
2022/12/03 12:39:51;;;;;;;22.65;13.40;;;;;;;;;;8330797;28;20116;-63
2022/12/03 12:43:51;;;;;;;22.55;12.82;;;;;;;;;;8326819;28;20020;-63
2022/12/03 12:47:54;;;;;;;24.30;13.57;;;;;;;;;;8327779;28;20050;-62
2022/12/03 12:51:55;;;;;;;23.45;12.77;;;;;;;;;;8327478;28;20271;-63
2022/12/03 12:55:59;;;;;;;21.75;13.45;;;;;;;;;;8327971;28;20549;-62
2022/12/03 12:59:59;;;;;;;;;;;;;;;;;;8326901;28;20336;-62
2022/12/03 13:03:59;;;;;;;21.73;12.95;;;;;;;;;;8323098;28;19916;-63
2022/12/03 13:07:59;;;;;;;21.92;13.45;;;;;;;;;;8326507;28;20288;-62
2022/12/03 13:12:02;;;;;;;23.40;13.48;;;;;;;;;;8330900;28;20029;-62
2022/12/03 13:16:05;;;;;;;24.15;13.48;;;;;;;;;;8327858;28;20066;-62
2022/12/03 13:20:13;;;;;;;24.10;13.85;;;;;;;;;;8325643;28;20679;-63
2022/12/03 13:24:34;;;;;;;28.67;14.25;;;;;;;;;;8325662;28;20040;-63
2022/12/03 13:28:35;;;;;;;24.27;14.15;;;;;;;;;;8328705;28;20035;-63
2022/12/03 13:32:36;;;;;;;26.95;15.23;;;;;;;;;;8328955;28;20040;-62
2022/12/03 13:36:40;;;;;;;24.42;14.20;;;;;;;;;;8326506;28;20416;-62
2022/12/03 13:40:41;;;;;;;24.17;14.23;;;;;;;;;;8326845;28;20143;-62
2022/12/03 13:44:46;;;;;;;23.58;14.02;;;;;;;;;;8327336;28;20120;-63
2022/12/03 13:48:46;;;;;;;27.73;15.75;;;;;;;;;;8328258;28;20064;-62
2022/12/03 13:52:47;;;;;;;27.40;15.15;;;;;;;;;;8331989;28;20371;-62
2022/12/03 13:56:48;;;;;;;24.83;14.32;;;;;;;;;;8332234;28;20540;-63
2022/12/03 14:00:48;;;;;;;25.33;14.90;;;;;;;;;;8332276;28;20044;-62
2022/12/03 14:04:48;;;;;;;24.77;15.35;;;;;;;;;;8334608;28;20021;-62
2022/12/03 14:08:48;;;;;;;26.88;15.90;;;;;;;;;;8331484;28;20117;-62
2022/12/03 14:12:49;;;;;;;25.25;14.57;;;;;;;;;;8333698;28;20405;-64
2022/12/03 14:16:49;;;;;;;27.30;15.07;;;;;;;;;;8331483;28;20156;-63
2022/12/03 14:20:49;;;;;;;26.55;15.50;;;;;;;;;;8332882;28;20276;-64
2022/12/03 14:24:53;;;;;;;26.33;15.23;;;;;;;;;;8337930;28;20276;-62
2022/12/03 14:28:53;;;;;;;30.95;14.85;;;;;;;;;;8332927;28;20486;-63
2022/12/03 14:32:53;;;;;;;27.20;15.45;;;;;;;;;;8332172;28;20488;-62
2022/12/03 14:36:54;;;;;;;29.08;15.48;;;;;;;;;;8329404;28;20289;-62
2022/12/03 14:40:55;;;;;;;30.38;16.88;;;;;;;;;;8333172;28;20489;-62
2022/12/03 14:44:56;;;;;;;28.40;15.98;;;;;;;;;;8331309;28;20211;-62
2022/12/03 14:48:56;;;;;;;27.52;16.10;;;;;;;;;;8333723;28;20506;-63
2022/12/03 14:52:56;;;;;;;27.02;16.05;;;;;;;;;;8329711;28;20487;-62
2022/12/03 14:56:57;;;;;;;29.90;16.05;;;;;;;;;;8332831;28;20032;-62
2022/12/03 15:00:57;;;;;;;28.67;15.83;;;;;;;;;;8330632;28;20086;-62
2022/12/03 15:04:57;;;;;;;32.22;17.27;;;;;;;;;;8332785;28;20279;-62
2022/12/03 15:08:57;;;;;;;27.23;16.23;;;;;;;;;;8331977;28;20617;-63
2022/12/03 15:12:57;;;;;;;30.13;16.70;;;;;;;;;;8330595;28;20060;-62
2022/12/03 15:16:58;;;;;;;31.10;17.20;;;;;;;;;;8331369;28;20156;-62
2022/12/03 15:20:58;;;;;;;25.77;14.88;;;;;;;;;;8331898;28;20482;-63
2022/12/03 15:25:01;;;;;;;28.77;16.15;;;;;;;;;;8332616;28;20055;-63
2022/12/03 15:29:01;;;;;;;28.52;16.23;;;;;;;;;;8329243;28;20339;-63
2022/12/03 15:33:02;;;;;;;30.95;18.00;;;;;;;;;;8327914;28;20041;-63
2022/12/03 15:37:02;;;;;;;27.90;15.32;;;;;;;;;;8329744;28;20025;-63
2022/12/03 15:41:19;;;;;;;29.73;17.30;;;;;;;;;;8329525;28;20029;-63
2022/12/03 15:45:20;;;;;;;32.85;16.30;;;;;;;;;;8331496;28;21413;-63
2022/12/03 15:49:20;;;;;;;28.15;16.70;;;;;;;;;;8329250;28;20034;-63
2022/12/03 15:53:21;;;;;;;25.93;15.53;;;;;;;;;;8329919;28;20371;-63
2022/12/03 15:57:21;;;;;;;26.92;16.27;;;;;;;;;;8332770;28;20360;-64
2022/12/03 16:01:21;;;;;;;27.65;16.25;;;;;;;;;;8336407;28;20029;-63
2022/12/03 16:05:22;;;;;;;29.95;16.92;;;;;;;;;;8330952;28;20025;-63
2022/12/03 16:09:22;;;;;;;30.25;16.35;;;;;;;;;;8327235;28;20207;-62
2022/12/03 16:13:22;;;;;;;30.27;16.25;;;;;;;;;;8328552;28;20886;-63
2022/12/03 16:17:22;;;;;;;29.48;17.27;;;;;;;;;;8329983;28;20639;-62
2022/12/03 16:21:23;;;;;;;27.00;15.68;;;;;;;;;;8328107;28;20115;-62
2022/12/03 16:25:23;;;;;;;28.48;15.85;;;;;;;;;;8328881;28;20103;-62
2022/12/03 16:29:23;;;;;;;24.98;14.95;;;;;;;;;;8327505;28;20044;-62
2022/12/03 16:33:23;;;;;;;28.55;17.27;;;;;;;;;;8325753;28;20047;-62
2022/12/03 16:37:23;;;;;;;29.00;16.33;;;;;;;;;;8328154;28;20132;-62
2022/12/03 16:41:24;;;;;;;27.10;16.45;;;;;;;;;;8329545;28;20251;-66
2022/12/03 16:46:00;;;;;;;30.30;17.10;;;;;;;;;;8323601;28;20493;-63
2022/12/03 16:50:00;;;;;;;27.10;16.23;;;;;;;;;;8325433;28;20024;-62
2022/12/03 16:54:00;;;;;;;29.77;16.45;;;;;;;;;;8325123;28;20028;-63
2022/12/03 16:58:00;;;;;;;26.50;15.02;;;;;;;;;;8324317;28;20024;-64
2022/12/03 17:02:00;;;;;;;26.70;16.20;;;;;;;;;;8324362;28;20126;-63
2022/12/03 17:06:01;;;;;;;28.95;16.05;;;;;;;;;;8324231;28;20294;-64
2022/12/03 17:10:01;;;;;;;26.85;15.98;;;;;;;;;;8326164;28;20036;-62
2022/12/03 17:14:01;;;;;;;28.73;16.02;;;;;;;;;;8325442;28;20313;-63
2022/12/03 17:18:04;;;;;;;29.55;16.42;;;;;;;;;;8325844;28;20029;-63
2022/12/03 17:22:04;;;;;;;26.48;15.68;;;;;;;;;;8326385;28;20336;-63
2022/12/03 17:26:05;;;;;;;27.77;16.52;;;;;;;;;;8326702;28;20267;-63
2022/12/03 17:30:05;;;;;;;29.50;16.90;;;;;;;;;;8333209;28;20120;-63
2022/12/03 17:34:05;;;;;;;32.08;17.08;;;;;;;;;;8333116;28;20029;-62
2022/12/03 17:38:07;;;;;;;31.30;18.33;;;;;;;;;;8332484;28;20107;-63
2022/12/03 17:42:08;;;;;;;31.83;18.05;;;;;;;;;;8329544;28;20029;-63
2022/12/03 17:46:08;;;;;;;27.65;16.02;;;;;;;;;;8329957;28;20199;-63
2022/12/03 17:50:08;;;;;;;27.25;15.93;;;;;;;;;;8331316;28;20492;-63
2022/12/03 17:54:08;;;;;;;27.65;16.83;;;;;;;;;;8331515;28;20226;-63
2022/12/03 17:58:08;;;;;;;26.73;16.13;;;;;;;;;;8331568;28;20037;-63
2022/12/03 18:02:09;;;;;;;30.58;16.75;;;;;;;;;;8329533;28;20148;-63
2022/12/03 18:06:09;;;;;;;33.10;17.38;;;;;;;;;;8329680;28;20472;-63
2022/12/03 18:10:09;;;;;;;24.67;15.40;;;;;;;;;;8330922;28;20024;-63
2022/12/03 18:14:11;;;;;;;28.67;16.42;;;;;;;;;;8331750;28;20032;-63
2022/12/03 18:18:11;;;;;;;32.33;17.13;;;;;;;;;;8328165;28;20033;-62
2022/12/03 18:22:11;;;;;;;28.55;16.00;;;;;;;;;;8329798;28;20024;-63
2022/12/03 18:26:12;;;;;;;32.87;17.40;;;;;;;;;;8330013;28;21475;-63
2022/12/03 18:30:12;;;;;;;27.92;17.05;;;;;;;;;;8336049;28;20397;-62
2022/12/03 18:34:13;;;;;;;27.23;15.85;;;;;;;;;;8328372;28;20977;-63
2022/12/03 18:38:14;;;;;;;28.35;16.52;;;;;;;;;;8328447;28;20069;-63
2022/12/03 18:42:15;;;;;;;28.50;16.77;;;;;;;;;;8331123;28;20108;-62
2022/12/03 18:46:16;;;;;;;28.92;17.00;;;;;;;;;;8329218;28;20033;-62
2022/12/03 18:50:17;;;;;;;27.25;16.55;;;;;;;;;;8327633;28;20235;-62
2022/12/03 18:54:17;;;;;;;27.00;16.10;;;;;;;;;;8326369;28;20468;-62
2022/12/03 18:58:18;;;;;;;26.90;17.05;;;;;;;;;;8328553;28;20245;-64
2022/12/03 19:02:20;;;;;;;28.10;16.35;;;;;;;;;;8327249;28;20058;-63
2022/12/03 19:06:20;;;;;;;27.80;17.25;;;;;;;;;;8326825;28;20025;-63
2022/12/03 19:10:20;;;;;;;29.23;17.15;;;;;;;;;;8330129;28;20534;-62
2022/12/03 19:14:20;;;;;;;28.23;16.70;;;;;;;;;;8327726;28;20281;-62
2022/12/03 19:18:21;;;;;;;29.88;17.10;;;;;;;;;;8327139;28;20119;-62
2022/12/03 19:22:21;;;;;;;29.80;16.70;;;;;;;;;;8328502;28;20469;-63
2022/12/03 19:26:22;;;;;;;25.02;15.38;;;;;;;;;;8328795;28;20531;-62
2022/12/03 19:30:22;;;;;;;28.52;16.60;;;;;;;;;;8327860;28;20055;-62
2022/12/03 19:34:22;;;;;;;27.23;15.70;;;;;;;;;;8327046;28;20075;-63
2022/12/03 19:38:23;;;;;;;30.58;17.02;;;;;;;;;;8327011;28;20507;-63
2022/12/03 19:42:23;;;;;;;29.83;16.48;;;;;;;;;;8324088;28;20166;-62
2022/12/03 19:46:25;;;;;;;30.67;17.30;;;;;;;;;;8324189;28;20037;-63
2022/12/03 19:50:25;;;;;;;28.42;16.00;;;;;;;;;;8328262;28;20036;-63
2022/12/03 19:54:25;;;;;;;29.90;15.43;;;;;;;;;;8332803;28;20063;-63
2022/12/03 19:58:25;;;;;;;28.98;16.75;;;;;;;;;;8329887;28;20123;-63
2022/12/03 20:02:26;;;;;;;30.35;16.70;;;;;;;;;;8335569;28;20086;-63
2022/12/03 20:06:27;;;;;;;28.02;15.45;;;;;;;;;;8333083;28;20029;-63
2022/12/03 20:10:27;;;;;;;29.55;16.35;;;;;;;;;;8331404;28;20152;-62
2022/12/03 20:14:28;;;;;;;26.47;16.03;;;;;;;;;;8331317;28;20032;-63
2022/12/03 20:18:28;;;;;;;28.90;16.55;;;;;;;;;;8335808;28;20290;-63
2022/12/03 20:22:28;;;;;;;29.33;17.00;;;;;;;;;;8334045;28;20051;-63
2022/12/03 20:26:30;;;;;;;27.08;15.32;;;;;;;;;;8334965;28;20090;-63
2022/12/03 20:30:30;;;;;;;26.38;15.85;;;;;;;;;;8331865;28;20446;-63
2022/12/03 20:34:34;;;;;;;27.63;15.82;;;;;;;;;;8333415;28;20039;-63
2022/12/03 20:38:36;;;;;;;32.25;16.48;;;;;;;;;;8332771;28;20183;-63
2022/12/03 20:42:36;;;;;;;29.65;16.73;;;;;;;;;;8332974;28;20032;-66
2022/12/03 20:46:36;;;;;;;27.30;16.07;;;;;;;;;;8331263;28;20151;-63
2022/12/03 20:50:37;;;;;;;30.02;17.02;;;;;;;;;;8333353;28;20298;-64
2022/12/03 20:54:37;;;;;;;28.92;15.45;;;;;;;;;;8333116;28;20112;-63
2022/12/03 20:58:38;;;;;;;24.50;15.38;;;;;;;;;;8329607;28;20296;-63
2022/12/03 21:02:38;;;;;;;28.27;15.93;;;;;;;;;;8330386;28;20741;-63
2022/12/03 21:06:41;;;;;;;28.00;15.87;;;;;;;;;;8332297;28;20035;-62
2022/12/03 21:10:44;;;;;;;27.70;15.43;;;;;;;;;;8331364;28;20275;-63
2022/12/03 21:14:45;;;;;;;26.10;15.77;;;;;;;;;;8333219;28;20032;-63
2022/12/03 21:18:45;;;;;;;28.50;16.42;;;;;;;;;;8329142;28;20125;-63
2022/12/03 21:22:48;;;;;;;25.05;14.52;;;;;;;;;;8332845;28;20029;-66
2022/12/03 21:26:49;;;;;;;26.30;15.27;;;;;;;;;;8341125;28;20032;-63
2022/12/03 21:30:49;;;;;;;27.15;15.75;;;;;;;;;;8329509;28;20051;-63
2022/12/03 21:34:49;;;;;;;26.05;14.80;;;;;;;;;;8330967;28;20857;-63
2022/12/03 21:38:49;;;;;;;26.50;14.82;;;;;;;;;;8332975;28;20823;-63
2022/12/03 21:42:50;;;;;;;24.48;14.40;;;;;;;;;;8331175;28;20629;-63
2022/12/03 21:46:50;;;;;;;26.88;14.77;;;;;;;;;;8325576;28;20041;-63
2022/12/03 21:51:00;;;;;;;23.65;13.50;;;;;;;;;;8332114;28;20025;-63
2022/12/03 21:55:00;;;;;;;28.58;14.55;;;;;;;;;;8332815;28;20029;-64
2022/12/03 21:59:01;;;;;;;24.45;14.75;;;;;;;;;;8333617;28;20051;-62
2022/12/03 22:03:01;;;;;;;22.23;13.63;;;;;;;;;;8331435;28;20040;-63
2022/12/03 22:07:02;;;;;;;23.63;13.85;;;;;;;;;;8330928;28;20389;-62
2022/12/03 22:11:03;;;;;;;23.00;13.75;;;;;;;;;;8332425;28;20095;-64
2022/12/03 22:15:03;;;;;;;23.77;14.60;;;;;;;;;;8335752;28;20029;-63
2022/12/03 22:19:04;;;;;;;25.80;14.10;;;;;;;;;;8337711;28;20032;-62
2022/12/03 22:23:04;;;;;;;22.85;14.25;;;;;;;;;;8336227;28;20028;-63
2022/12/03 22:27:04;;;;;;;23.63;13.57;;;;;;;;;;8339413;28;20488;-63
2022/12/03 22:31:05;;;;;;;23.45;13.40;;;;;;;;;;8337992;28;21086;-63
2022/12/03 22:35:05;;;;;;;23.00;13.02;;;;;;;;;;8332230;28;20029;-63
2022/12/03 22:39:06;;;;;;;24.38;14.23;;;;;;;;;;8338027;28;20068;-63
2022/12/03 22:43:06;;;;;;;19.57;12.37;;;;;;;;;;8336625;28;20149;-63
2022/12/03 22:47:06;;;;;;;20.50;12.38;;;;;;;;;;8336541;28;20353;-63
2022/12/03 22:51:17;;;;;;;24.88;13.60;;;;;;;;;;8337879;28;20588;-63
2022/12/03 22:55:18;;;;;;;20.88;12.30;;;;;;;;;;8340362;28;20102;-63
2022/12/03 22:59:18;;;;;;;21.92;12.50;;;;;;;;;;8338950;28;20089;-63
2022/12/03 23:03:19;;;;;;;21.58;12.65;;;;;;;;;;8339794;28;20890;-63
2022/12/03 23:07:19;;;;;;;20.70;12.15;;;;;;;;;;8337966;28;20027;-63
2022/12/03 23:11:19;;;;;;;17.58;11.27;;;;;;;;;;8338872;28;20091;-62
2022/12/03 23:15:19;;;;;;;19.25;11.98;;;;;;;;;;8338274;28;20053;-63
2022/12/03 23:19:20;;;;;;;19.25;11.63;;;;;;;;;;8338923;28;20024;-63
2022/12/03 23:23:21;;;;;;;15.77;11.02;;;;;;;;;;8337574;28;20966;-62
2022/12/03 23:27:21;;;;;;;15.70;10.68;;;;;;;;;;8338529;28;20385;-63
2022/12/03 23:31:26;;;;;;;18.30;11.27;;;;;;;;;;8338271;28;20680;-63
2022/12/03 23:35:26;;;;;;;;;;;;;;;;;;8340403;28;20282;-63
2022/12/03 23:39:26;;;;;;;18.35;11.57;;;;;;;;;;8340751;28;19973;-63